Time,TemperatureF,DewpointF,PressureIn,WindDirection,WindDirectionDegrees,WindSpeedMPH,WindSpeedGustMPH,Humidity,HourlyPrecipIn,Conditions,Clouds,dailyrainin,SolarRadiationWatts/m^2,SoftwareType,DateUTC
2013-01-16 00:00:00,34.9,22.4,30.29,NNE,18,0.0,0.0,60,0.00,,,0.00,0,Wunderground v.1.15,2013-01-16 05:00:00,
2013-01-16 00:02:00,34.9,22.4,30.27,NNE,18,0.0,0.0,60,0.00,,,0.00,0,Wunderground v.1.15,2013-01-16 05:02:00,
2013-01-16 00:08:00,34.9,22.4,30.27,NNE,18,0.0,0.0,60,0.00,,,0.00,0,Wunderground v.1.15,2013-01-16 05:08:00,
2013-01-16 00:14:00,34.9,22.0,30.27,NNE,18,0.0,0.0,59,0.00,,,0.00,0,Wunderground v.1.15,2013-01-16 05:14:00,
2013-01-16 00:20:00,34.9,22.4,30.27,NNE,18,0.0,0.0,60,0.00,,,0.00,0,Wunderground v.1.15,2013-01-16 05:20:00,
2013-01-16 00:26:00,34.7,22.2,30.27,NNE,18,0.0,0.0,60,0.00,,,0.00,0,Wunderground v.1.15,2013-01-16 05:26:00,
2013-01-16 00:32:00,34.9,22.4,30.28,NNE,18,0.0,0.0,60,0.00,,,0.00,0,Wunderground v.1.15,2013-01-16 05:32:00,
2013-01-16 00:38:00,34.9,22.4,30.28,NNE,18,0.0,0.0,60,0.00,,,0.00,0,Wunderground v.1.15,2013-01-16 05:38:00,
2013-01-16 00:44:00,34.9,22.4,30.28,NNE,18,0.0,0.0,60,0.00,,,0.00,0,Wunderground v.1.15,2013-01-16 05:44:00,
2013-01-16 00:50:00,34.9,22.4,30.28,NNE,18,0.0,0.0,60,0.00,,,0.00,0,Wunderground v.1.15,2013-01-16 05:50:00,
2013-01-16 00:56:00,34.9,22.8,30.28,NNE,18,0.0,0.0,61,0.00,,,0.00,0,Wunderground v.1.15,2013-01-16 05:56:00,
2013-01-16 01:02:00,34.9,22.4,30.28,NNE,18,0.0,0.0,60,0.00,,,0.00,0,Wunderground v.1.15,2013-01-16 06:02:00,
2013-01-16 01:08:00,34.9,22.4,30.28,NNE,18,0.0,0.0,60,0.00,,,0.00,0,Wunderground v.1.15,2013-01-16 06:08:00,
2013-01-16 01:14:00,34.9,22.0,30.28,NNE,18,0.0,0.0,59,0.00,,,0.00,0,Wunderground v.1.15,2013-01-16 06:14:00,
2013-01-16 01:20:00,34.9,22.4,30.28,NNE,18,0.0,0.0,60,0.00,,,0.00,0,Wunderground v.1.15,2013-01-16 06:20:00,
2013-01-16 01:26:00,34.9,22.4,30.28,NNE,18,0.0,2.0,60,0.00,,,0.00,0,Wunderground v.1.15,2013-01-16 06:26:00,
2013-01-16 01:32:00,34.9,22.0,30.27,NNE,18,0.0,0.0,59,0.00,,,0.00,0,Wunderground v.1.15,2013-01-16 06:32:00,
2013-01-16 01:38:00,34.9,22.0,30.27,NNE,18,0.0,1.0,59,0.00,,,0.00,0,Wunderground v.1.15,2013-01-16 06:38:00,
2013-01-16 01:44:00,34.9,22.4,30.27,NNE,18,0.0,3.0,60,0.00,,,0.00,0,Wunderground v.1.15,2013-01-16 06:44:00,
2013-01-16 01:50:00,34.9,22.4,30.27,NNE,18,1.0,1.0,60,0.00,,,0.00,0,Wunderground v.1.15,2013-01-16 06:50:00,
2013-01-16 01:56:00,34.9,22.4,30.27,NNE,18,0.0,1.0,60,0.00,,,0.00,0,Wunderground v.1.15,2013-01-16 06:56:00,
2013-01-16 02:02:00,34.9,22.4,30.27,NNE,18,0.0,1.0,60,0.00,,,0.00,0,Wunderground v.1.15,2013-01-16 07:02:00,
2013-01-16 02:08:00,34.7,22.2,30.27,NNE,18,0.0,4.0,60,0.00,,,0.00,0,Wunderground v.1.15,2013-01-16 07:08:00,
2013-01-16 02:14:00,34.7,22.2,30.27,NNE,18,0.0,1.0,60,0.00,,,0.00,0,Wunderground v.1.15,2013-01-16 07:14:00,
2013-01-16 02:20:00,34.7,22.6,30.26,NNE,18,0.0,0.0,61,0.00,,,0.00,0,Wunderground v.1.15,2013-01-16 07:20:00,
2013-01-16 02:26:00,34.7,22.6,30.26,NNE,18,0.0,1.0,61,0.00,,,0.00,0,Wunderground v.1.15,2013-01-16 07:26:00,
2013-01-16 02:32:00,34.7,22.6,30.27,NNE,18,0.0,0.0,61,0.00,,,0.00,0,Wunderground v.1.15,2013-01-16 07:32:00,
2013-01-16 02:38:00,34.6,22.1,30.27,NNE,18,0.0,0.0,60,0.00,,,0.00,0,Wunderground v.1.15,2013-01-16 07:38:00,
2013-01-16 02:44:00,34.6,22.1,30.27,NNE,18,0.0,0.0,60,0.00,,,0.00,0,Wunderground v.1.15,2013-01-16 07:44:00,
2013-01-16 02:50:00,34.6,21.7,30.26,NNE,18,0.0,0.0,59,0.00,,,0.00,0,Wunderground v.1.15,2013-01-16 07:50:00,
2013-01-16 02:56:00,34.7,22.2,30.26,NNE,18,0.0,0.0,60,0.00,,,0.00,0,Wunderground v.1.15,2013-01-16 07:56:00,
2013-01-16 03:02:00,34.6,22.1,30.26,NNE,18,0.0,0.0,60,0.00,,,0.00,0,Wunderground v.1.15,2013-01-16 08:02:00,
2013-01-16 03:08:00,34.7,22.2,30.26,NNE,18,0.0,0.0,60,0.00,,,0.00,0,Wunderground v.1.15,2013-01-16 08:08:00,
2013-01-16 03:14:00,34.7,22.2,30.26,NNE,18,0.0,0.0,60,0.00,,,0.00,0,Wunderground v.1.15,2013-01-16 08:14:00,
2013-01-16 03:20:00,34.7,22.2,30.25,NNE,18,0.0,0.0,60,0.00,,,0.00,0,Wunderground v.1.15,2013-01-16 08:20:00,
2013-01-16 03:26:00,34.6,21.7,30.25,NNE,18,1.0,4.0,59,0.00,,,0.00,0,Wunderground v.1.15,2013-01-16 08:26:00,
2013-01-16 03:32:00,34.6,21.3,30.24,NNE,18,1.0,4.0,58,0.00,,,0.00,0,Wunderground v.1.15,2013-01-16 08:32:00,
2013-01-16 03:38:00,34.6,21.3,30.24,NNE,18,1.0,4.0,58,0.00,,,0.00,0,Wunderground v.1.15,2013-01-16 08:38:00,
2013-01-16 03:44:00,34.4,21.1,30.24,NNE,18,1.0,2.0,58,0.00,,,0.00,0,Wunderground v.1.15,2013-01-16 08:44:00,
2013-01-16 03:50:00,34.4,21.1,30.22,NNE,18,1.0,1.0,58,0.00,,,0.00,0,Wunderground v.1.15,2013-01-16 08:50:00,
2013-01-16 03:56:00,34.3,20.6,30.22,NNE,18,1.0,4.0,57,0.00,,,0.00,0,Wunderground v.1.15,2013-01-16 08:56:00,
2013-01-16 04:02:00,34.3,20.6,30.20,NNE,18,2.0,2.0,57,0.00,,,0.00,0,Wunderground v.1.15,2013-01-16 09:02:00,
2013-01-16 04:08:00,34.3,20.6,30.20,NNE,18,1.0,2.0,57,0.00,,,0.00,0,Wunderground v.1.15,2013-01-16 09:08:00,
2013-01-16 04:14:00,34.4,20.3,30.20,NNE,18,0.0,2.0,56,0.00,,,0.00,0,Wunderground v.1.15,2013-01-16 09:14:00,
2013-01-16 04:20:00,34.4,20.3,30.20,NNE,18,0.0,2.0,56,0.00,,,0.00,0,Wunderground v.1.15,2013-01-16 09:20:00,
2013-01-16 04:26:00,34.4,20.3,30.20,NNE,18,0.0,4.0,56,0.00,,,0.00,0,Wunderground v.1.15,2013-01-16 09:26:00,
2013-01-16 04:32:00,34.4,21.1,30.20,NNE,18,1.0,2.0,58,0.00,,,0.00,0,Wunderground v.1.15,2013-01-16 09:32:00,
2013-01-16 04:38:00,34.4,20.7,30.20,NNE,18,0.0,2.0,57,0.00,,,0.00,0,Wunderground v.1.15,2013-01-16 09:38:00,
2013-01-16 04:44:00,34.4,21.1,30.20,NNE,18,0.0,3.0,58,0.00,,,0.00,0,Wunderground v.1.15,2013-01-16 09:44:00,
2013-01-16 04:50:00,33.7,23.2,30.21,East,97,2.0,2.0,65,0.00,,,0.00,0,Wunderground v.1.15,2013-01-16 09:50:00,
2013-01-16 04:56:00,33.1,24.0,30.21,NE,43,1.0,2.0,69,0.00,,,0.00,0,Wunderground v.1.15,2013-01-16 09:56:00,
2013-01-16 05:02:00,32.4,24.4,30.19,NE,43,1.0,2.0,72,0.00,,,0.00,0,Wunderground v.1.15,2013-01-16 10:02:00,
2013-01-16 05:08:00,31.8,25.1,30.19,NE,43,1.0,2.0,76,0.00,,,0.00,0,Wunderground v.1.15,2013-01-16 10:08:00,
2013-01-16 05:14:00,31.3,25.5,30.19,NE,43,0.0,2.0,79,0.00,,,0.00,0,Wunderground v.1.15,2013-01-16 10:14:00,
2013-01-16 05:20:00,31.2,26.3,30.19,NE,43,0.0,2.0,82,0.00,,,0.00,0,Wunderground v.1.15,2013-01-16 10:20:00,
2013-01-16 05:26:00,30.9,26.9,30.19,NE,43,1.0,2.0,85,0.00,,,0.00,0,Wunderground v.1.15,2013-01-16 10:26:00,
2013-01-16 05:32:00,30.6,26.9,30.18,NE,43,0.0,2.0,86,0.00,,,0.00,0,Wunderground v.1.15,2013-01-16 10:32:00,
2013-01-16 05:38:00,30.6,27.5,30.18,NE,43,0.0,2.0,88,0.00,,,0.00,0,Wunderground v.1.15,2013-01-16 10:38:00,
2013-01-16 05:44:00,30.6,27.7,30.18,NE,43,0.0,2.0,89,0.00,,,0.00,0,Wunderground v.1.15,2013-01-16 10:44:00,
2013-01-16 05:50:00,30.6,27.7,30.18,NE,43,0.0,2.0,89,0.00,,,0.00,0,Wunderground v.1.15,2013-01-16 10:50:00,
2013-01-16 05:56:00,30.4,27.8,30.18,NE,43,0.0,2.0,90,0.00,,,0.00,0,Wunderground v.1.15,2013-01-16 10:56:00,
2013-01-16 06:02:00,30.4,27.8,30.18,NE,43,0.0,2.0,90,0.00,,,0.00,0,Wunderground v.1.15,2013-01-16 11:02:00,
2013-01-16 06:08:00,30.4,28.1,30.18,NE,43,0.0,2.0,91,0.00,,,0.00,0,Wunderground v.1.15,2013-01-16 11:08:00,
2013-01-16 06:14:00,30.3,28.0,30.18,NE,43,0.0,1.0,91,0.00,,,0.00,0,Wunderground v.1.15,2013-01-16 11:14:00,
2013-01-16 06:20:00,30.3,28.3,30.17,NE,43,0.0,1.0,92,0.00,,,0.00,0,Wunderground v.1.15,2013-01-16 11:20:00,
2013-01-16 06:26:00,30.1,28.1,30.17,NE,42,0.0,1.0,92,0.00,,,0.00,0,Wunderground v.1.15,2013-01-16 11:26:00,
2013-01-16 06:32:00,30.1,28.1,30.16,NE,42,0.0,0.0,92,0.00,,,0.00,0,Wunderground v.1.15,2013-01-16 11:32:00,
2013-01-16 06:38:00,30.1,28.1,30.16,NE,42,1.0,1.0,92,0.00,,,0.00,0,Wunderground v.1.15,2013-01-16 11:38:00,
2013-01-16 06:44:00,30.1,28.3,30.16,NE,42,0.0,1.0,93,0.00,,,0.00,0,Wunderground v.1.15,2013-01-16 11:44:00,
2013-01-16 06:50:00,30.3,28.5,30.16,NE,42,0.0,0.0,93,0.00,,,0.00,0,Wunderground v.1.15,2013-01-16 11:50:00,
2013-01-16 06:56:00,30.3,28.5,30.16,NE,42,0.0,4.0,93,0.00,,,0.00,0,Wunderground v.1.15,2013-01-16 11:56:00,
2013-01-16 07:02:00,30.3,28.8,30.16,NE,42,1.0,1.0,94,0.00,,,0.00,0,Wunderground v.1.15,2013-01-16 12:02:00,
2013-01-16 07:08:00,30.3,28.8,30.16,NW,318,1.0,4.0,94,0.00,,,0.00,0,Wunderground v.1.15,2013-01-16 12:08:00,
2013-01-16 07:14:00,30.3,28.8,30.16,NW,322,1.0,4.0,94,0.00,,,0.00,0,Wunderground v.1.15,2013-01-16 12:14:00,
2013-01-16 07:20:00,30.1,28.6,30.16,NW,323,0.0,4.0,94,0.00,,,0.00,0,Wunderground v.1.15,2013-01-16 12:20:00,
2013-01-16 07:26:00,30.3,28.8,30.16,North,360,0.0,4.0,94,0.00,,,0.00,0,Wunderground v.1.15,2013-01-16 12:26:00,
2013-01-16 07:32:00,30.3,29.0,30.15,NNW,344,0.0,4.0,95,0.00,,,0.00,0,Wunderground v.1.15,2013-01-16 12:32:00,
2013-01-16 07:38:00,30.3,28.8,30.15,NNW,344,0.0,4.0,94,0.00,,,0.00,0,Wunderground v.1.15,2013-01-16 12:38:00,
2013-01-16 07:44:00,30.1,28.6,30.15,NNE,25,1.0,4.0,94,0.00,,,0.00,0,Wunderground v.1.15,2013-01-16 12:44:00,
2013-01-16 07:50:00,30.0,28.7,30.15,NNE,24,1.0,1.0,95,0.00,,,0.00,0,Wunderground v.1.15,2013-01-16 12:50:00,
2013-01-16 07:56:00,30.0,28.7,30.15,NNE,24,1.0,4.0,95,0.00,,,0.00,0,Wunderground v.1.15,2013-01-16 12:56:00,
2013-01-16 08:02:00,30.0,28.7,30.14,NNE,24,1.0,4.0,95,0.00,,,0.00,0,Wunderground v.1.15,2013-01-16 13:02:00,
2013-01-16 08:08:00,30.1,28.8,30.14,NNE,24,0.0,4.0,95,0.00,,,0.00,5,Wunderground v.1.15,2013-01-16 13:08:00,
2013-01-16 08:14:00,30.1,28.8,30.14,NNE,24,1.0,2.0,95,0.00,,,0.00,5,Wunderground v.1.15,2013-01-16 13:14:00,
2013-01-16 08:20:00,30.1,28.8,30.13,NNE,24,1.0,1.0,95,0.00,,,0.00,5,Wunderground v.1.15,2013-01-16 13:20:00,
2013-01-16 08:26:00,30.3,29.0,30.13,NNE,24,0.0,1.0,95,0.00,,,0.00,5,Wunderground v.1.15,2013-01-16 13:26:00,
2013-01-16 08:32:00,30.3,29.0,30.13,NNE,24,0.0,0.0,95,0.00,,,0.00,5,Wunderground v.1.15,2013-01-16 13:32:00,
2013-01-16 08:38:00,30.3,29.0,30.13,NNE,24,0.0,0.0,95,0.00,,,0.00,5,Wunderground v.1.15,2013-01-16 13:38:00,
2013-01-16 08:44:00,30.4,29.1,30.13,NNE,24,0.0,0.0,95,0.00,,,0.00,7,Wunderground v.1.15,2013-01-16 13:44:00,
2013-01-16 08:50:00,30.4,29.1,30.14,NNE,24,0.0,0.0,95,0.00,,,0.00,9,Wunderground v.1.15,2013-01-16 13:50:00,
2013-01-16 08:56:00,30.4,29.1,30.14,NNE,24,0.0,0.0,95,0.00,,,0.00,9,Wunderground v.1.15,2013-01-16 13:56:00,
2013-01-16 09:02:00,30.4,29.1,30.13,NNE,24,0.0,0.0,95,0.00,,,0.00,11,Wunderground v.1.15,2013-01-16 14:02:00,
2013-01-16 09:08:00,30.4,29.1,30.13,NNE,24,0.0,0.0,95,0.00,,,0.00,12,Wunderground v.1.15,2013-01-16 14:08:00,
2013-01-16 09:14:00,30.6,29.3,30.13,NNE,24,0.0,0.0,95,0.00,,,0.00,12,Wunderground v.1.15,2013-01-16 14:14:00,
2013-01-16 09:20:00,30.4,29.1,30.11,NNE,24,0.0,0.0,95,0.00,,,0.00,16,Wunderground v.1.15,2013-01-16 14:20:00,
2013-01-16 09:26:00,30.4,29.1,30.11,NNE,24,0.0,0.0,95,0.00,,,0.00,19,Wunderground v.1.15,2013-01-16 14:26:00,
2013-01-16 09:32:00,30.9,29.9,30.09,NNE,24,0.0,0.0,96,0.00,,,0.00,21,Wunderground v.1.15,2013-01-16 14:32:00,
2013-01-16 09:38:00,30.9,29.6,30.09,NNE,24,0.0,0.0,95,0.00,,,0.00,21,Wunderground v.1.15,2013-01-16 14:38:00,
2013-01-16 09:44:00,30.9,29.6,30.09,NNE,24,0.0,0.0,95,0.00,,,0.00,19,Wunderground v.1.15,2013-01-16 14:44:00,
2013-01-16 09:50:00,31.0,29.7,30.08,NNE,24,0.0,0.0,95,0.00,,,0.00,18,Wunderground v.1.15,2013-01-16 14:50:00,
2013-01-16 09:56:00,31.2,29.9,30.08,NNE,24,0.0,0.0,95,0.00,,,0.00,18,Wunderground v.1.15,2013-01-16 14:56:00,
2013-01-16 10:02:00,31.2,29.9,30.06,NNE,24,0.0,0.0,95,0.00,,,0.00,23,Wunderground v.1.15,2013-01-16 15:02:00,
2013-01-16 10:08:00,31.2,29.9,30.06,NNE,24,0.0,0.0,95,0.00,,,0.00,21,Wunderground v.1.15,2013-01-16 15:08:00,
2013-01-16 10:14:00,31.3,30.0,30.06,NNE,24,0.0,0.0,95,0.00,,,0.00,19,Wunderground v.1.15,2013-01-16 15:14:00,
2013-01-16 10:20:00,31.5,30.5,30.04,NNE,24,0.0,0.0,96,0.00,,,0.00,18,Wunderground v.1.15,2013-01-16 15:20:00,
2013-01-16 10:26:00,31.6,30.3,30.04,NNE,24,0.0,0.0,95,0.00,,,0.00,21,Wunderground v.1.15,2013-01-16 15:26:00,
2013-01-16 10:32:00,31.6,30.3,30.02,NNE,24,0.0,0.0,95,0.00,,,0.00,25,Wunderground v.1.15,2013-01-16 15:32:00,
2013-01-16 10:38:00,31.8,30.8,30.02,NNE,24,0.0,0.0,96,0.00,,,0.00,23,Wunderground v.1.15,2013-01-16 15:38:00,
2013-01-16 10:44:00,31.9,30.9,30.02,NNE,24,0.0,0.0,96,0.00,,,0.00,25,Wunderground v.1.15,2013-01-16 15:44:00,
2013-01-16 10:50:00,32.1,31.1,30.02,NNE,24,0.0,0.0,96,0.00,,,0.00,21,Wunderground v.1.15,2013-01-16 15:50:00,
2013-01-16 10:56:00,32.2,31.2,30.02,NNE,24,0.0,0.0,96,0.00,,,0.00,19,Wunderground v.1.15,2013-01-16 15:56:00,
2013-01-16 11:02:00,32.2,31.2,30.02,NNE,24,0.0,0.0,96,0.00,,,0.00,21,Wunderground v.1.15,2013-01-16 16:02:00,
2013-01-16 11:08:00,32.2,31.2,30.02,NNE,24,0.0,0.0,96,0.00,,,0.00,21,Wunderground v.1.15,2013-01-16 16:08:00,
2013-01-16 11:14:00,32.1,31.1,30.02,NNE,24,0.0,0.0,96,0.00,,,0.00,21,Wunderground v.1.15,2013-01-16 16:14:00,
2013-01-16 11:20:00,32.1,31.1,30.00,NE,42,0.0,0.0,96,0.00,,,0.00,19,Wunderground v.1.15,2013-01-16 16:20:00,
2013-01-16 11:26:00,32.2,31.2,30.00,East,81,0.0,0.0,96,0.00,,,0.00,21,Wunderground v.1.15,2013-01-16 16:26:00,
2013-01-16 11:32:00,32.2,31.2,29.98,North,11,0.0,7.0,96,0.00,,,0.00,23,Wunderground v.1.15,2013-01-16 16:32:00,
2013-01-16 11:38:00,32.2,31.2,29.98,NNE,21,1.0,7.0,96,0.00,,,0.00,21,Wunderground v.1.15,2013-01-16 16:38:00,
2013-01-16 11:44:00,32.2,31.2,29.98,NNE,21,1.0,4.0,96,0.00,,,0.00,23,Wunderground v.1.15,2013-01-16 16:44:00,
2013-01-16 11:50:00,32.4,31.4,29.98,North,355,1.0,4.0,96,0.00,,,0.00,23,Wunderground v.1.15,2013-01-16 16:50:00,
2013-01-16 11:56:00,32.4,31.4,29.98,North,5,1.0,4.0,96,0.00,,,0.00,26,Wunderground v.1.15,2013-01-16 16:56:00,
2013-01-16 12:02:00,32.4,31.4,29.97,NE,46,1.0,5.0,96,0.00,,,0.00,26,Wunderground v.1.15,2013-01-16 17:02:00,
2013-01-16 12:08:00,32.4,31.4,29.97,NE,45,2.0,5.0,96,0.00,,,0.00,30,Wunderground v.1.15,2013-01-16 17:08:00,
2013-01-16 12:14:00,32.5,31.5,29.97,NNW,339,2.0,5.0,96,0.00,,,0.00,33,Wunderground v.1.15,2013-01-16 17:14:00,
2013-01-16 12:20:00,32.7,31.7,29.98,NNW,334,1.0,5.0,96,0.00,,,0.00,32,Wunderground v.1.15,2013-01-16 17:20:00,
2013-01-16 12:26:00,32.7,31.7,29.98,NNW,334,1.0,5.0,96,0.00,,,0.00,35,Wunderground v.1.15,2013-01-16 17:26:00,
2013-01-16 12:32:00,32.8,31.8,29.96,NNW,334,1.0,5.0,96,0.00,,,0.00,39,Wunderground v.1.15,2013-01-16 17:32:00,
2013-01-16 12:38:00,32.9,31.9,29.96,NE,34,0.0,5.0,96,0.00,,,0.00,46,Wunderground v.1.15,2013-01-16 17:38:00,
2013-01-16 12:44:00,32.8,31.8,29.96,NNE,26,1.0,5.0,96,0.00,,,0.00,63,Wunderground v.1.15,2013-01-16 17:44:00,
2013-01-16 12:50:00,32.9,31.9,29.95,NNE,26,1.0,1.0,96,0.00,,,0.01,56,Wunderground v.1.15,2013-01-16 17:50:00,
2013-01-16 12:56:00,32.9,31.9,29.95,NNE,26,0.0,5.0,96,0.00,,,0.01,54,Wunderground v.1.15,2013-01-16 17:56:00,
2013-01-16 13:02:00,32.9,31.9,29.95,NNE,26,0.0,5.0,96,0.00,,,0.01,44,Wunderground v.1.15,2013-01-16 18:02:00,
2013-01-16 13:08:00,32.9,31.9,29.95,NNE,22,1.0,5.0,96,0.00,,,0.02,40,Wunderground v.1.15,2013-01-16 18:08:00,
2013-01-16 13:14:00,32.9,31.9,29.95,NNE,22,2.0,4.0,96,0.00,,,0.02,47,Wunderground v.1.15,2013-01-16 18:14:00,
2013-01-16 13:20:00,32.9,31.9,29.95,NNE,22,1.0,1.0,96,0.00,,,0.02,62,Wunderground v.1.15,2013-01-16 18:20:00,
2013-01-16 13:26:00,33.1,32.1,29.95,NNE,22,0.0,4.0,96,0.04,,,0.03,51,Wunderground v.1.15,2013-01-16 18:26:00,
2013-01-16 13:32:00,33.1,32.1,29.93,NNE,22,0.0,4.0,96,0.04,,,0.03,44,Wunderground v.1.15,2013-01-16 18:32:00,
2013-01-16 13:38:00,33.1,32.1,29.93,NNE,22,0.0,4.0,96,0.00,,,0.03,40,Wunderground v.1.15,2013-01-16 18:38:00,
2013-01-16 13:44:00,32.9,31.9,29.93,NNE,22,0.0,4.0,96,0.00,,,0.04,39,Wunderground v.1.15,2013-01-16 18:44:00,
2013-01-16 13:50:00,33.1,32.1,29.92,NNE,22,0.0,4.0,96,0.00,,,0.04,40,Wunderground v.1.15,2013-01-16 18:50:00,
2013-01-16 13:56:00,32.9,31.9,29.92,NNE,22,1.0,4.0,96,0.04,,,0.05,46,Wunderground v.1.15,2013-01-16 18:56:00,
2013-01-16 14:02:00,32.8,31.8,29.91,NNE,22,1.0,4.0,96,0.04,,,0.05,32,Wunderground v.1.15,2013-01-16 19:02:00,
2013-01-16 14:08:00,32.8,31.8,29.91,NNE,22,1.0,6.0,96,0.04,,,0.05,35,Wunderground v.1.15,2013-01-16 19:08:00,
2013-01-16 14:14:00,32.7,31.7,29.91,NNE,22,2.0,6.0,96,0.00,,,0.05,40,Wunderground v.1.15,2013-01-16 19:14:00,
2013-01-16 14:20:00,32.7,31.7,29.87,NNE,18,2.0,6.0,96,0.00,,,0.06,30,Wunderground v.1.15,2013-01-16 19:20:00,
2013-01-16 14:26:00,32.7,31.7,29.87,NNE,13,2.0,6.0,96,0.00,,,0.06,32,Wunderground v.1.15,2013-01-16 19:26:00,
2013-01-16 14:32:00,32.8,31.8,29.87,NNE,15,1.0,6.0,96,0.00,,,0.06,33,Wunderground v.1.15,2013-01-16 19:32:00,
2013-01-16 14:38:00,32.8,31.8,29.87,NNE,14,1.0,6.0,96,0.00,,,0.07,39,Wunderground v.1.15,2013-01-16 19:38:00,
2013-01-16 14:44:00,32.8,31.8,29.87,NNE,15,1.0,6.0,96,0.00,,,0.07,33,Wunderground v.1.15,2013-01-16 19:44:00,
2013-01-16 14:50:00,32.9,31.9,29.88,NNE,13,1.0,1.0,96,0.00,,,0.07,21,Wunderground v.1.15,2013-01-16 19:50:00,
2013-01-16 14:56:00,32.9,31.9,29.88,NNW,333,1.0,6.0,96,0.00,,,0.07,23,Wunderground v.1.15,2013-01-16 19:56:00,
2013-01-16 15:02:00,32.9,31.9,29.87,NNW,334,1.0,6.0,96,0.00,,,0.07,23,Wunderground v.1.15,2013-01-16 20:02:00,
2013-01-16 15:08:00,32.9,31.9,29.87,NNW,334,1.0,6.0,96,0.00,,,0.08,25,Wunderground v.1.15,2013-01-16 20:08:00,
2013-01-16 15:14:00,32.9,31.9,29.87,NNW,334,1.0,3.0,96,0.00,,,0.08,18,Wunderground v.1.15,2013-01-16 20:14:00,
2013-01-16 15:20:00,32.9,31.9,29.87,NNW,334,1.0,1.0,96,0.00,,,0.08,16,Wunderground v.1.15,2013-01-16 20:20:00,
2013-01-16 15:26:00,32.9,31.9,29.87,NW,326,3.0,5.0,96,0.00,,,0.08,12,Wunderground v.1.15,2013-01-16 20:26:00,
2013-01-16 15:32:00,32.9,31.9,29.90,NW,314,4.0,4.0,96,0.00,,,0.08,11,Wunderground v.1.15,2013-01-16 20:32:00,
2013-01-16 15:38:00,32.9,32.1,29.90,NNW,339,4.0,4.0,97,0.00,,,0.08,12,Wunderground v.1.15,2013-01-16 20:38:00,
2013-01-16 15:44:00,32.9,32.1,29.90,NNW,339,2.0,3.0,97,0.00,,,0.08,14,Wunderground v.1.15,2013-01-16 20:44:00,
2013-01-16 15:50:00,33.1,32.3,29.88,NNW,339,1.0,1.0,97,0.00,,,0.09,16,Wunderground v.1.15,2013-01-16 20:50:00,
2013-01-16 15:56:00,33.1,32.3,29.88,NNW,339,0.0,1.0,97,0.00,,,0.09,14,Wunderground v.1.15,2013-01-16 20:56:00,
2013-01-16 16:02:00,33.1,32.3,29.88,NNW,338,1.0,1.0,97,0.00,,,0.09,9,Wunderground v.1.15,2013-01-16 21:02:00,
2013-01-16 16:08:00,32.9,32.1,29.88,NNW,338,1.0,5.0,97,0.00,,,0.10,7,Wunderground v.1.15,2013-01-16 21:08:00,
2013-01-16 16:14:00,32.9,32.1,29.88,NNW,338,1.0,1.0,97,0.00,,,0.10,7,Wunderground v.1.15,2013-01-16 21:14:00,
2013-01-16 16:20:00,32.9,32.1,29.89,NNW,337,2.0,4.0,97,0.00,,,0.10,0,Wunderground v.1.15,2013-01-16 21:20:00,
2013-01-16 16:26:00,32.9,32.1,29.89,NNW,337,3.0,4.0,97,0.00,,,0.10,0,Wunderground v.1.15,2013-01-16 21:26:00,
2013-01-16 16:32:00,32.9,32.1,29.89,NW,317,3.0,3.0,97,0.00,,,0.10,0,Wunderground v.1.15,2013-01-16 21:32:00,
2013-01-16 16:38:00,32.9,32.1,29.89,NW,317,1.0,3.0,97,0.00,,,0.10,0,Wunderground v.1.15,2013-01-16 21:38:00,
2013-01-16 16:44:00,32.9,32.1,29.89,NW,317,1.0,1.0,97,0.00,,,0.10,0,Wunderground v.1.15,2013-01-16 21:44:00,
2013-01-16 16:50:00,32.9,32.1,29.89,NW,317,1.0,1.0,97,0.00,,,0.11,0,Wunderground v.1.15,2013-01-16 21:50:00,
2013-01-16 16:56:00,32.9,32.1,29.89,NW,317,1.0,4.0,97,0.00,,,0.11,0,Wunderground v.1.15,2013-01-16 21:56:00,
2013-01-16 17:02:00,32.9,32.1,29.89,NW,317,1.0,2.0,97,0.00,,,0.11,0,Wunderground v.1.15,2013-01-16 22:02:00,
2013-01-16 17:08:00,32.9,32.1,29.89,NW,317,1.0,2.0,97,0.00,,,0.11,0,Wunderground v.1.15,2013-01-16 22:08:00,
2013-01-16 17:14:00,33.1,32.3,29.89,NW,317,1.0,2.0,97,0.00,,,0.11,0,Wunderground v.1.15,2013-01-16 22:14:00,
2013-01-16 17:20:00,33.1,32.3,29.90,NW,306,1.0,4.0,97,0.00,,,0.11,0,Wunderground v.1.15,2013-01-16 22:20:00,
2013-01-16 17:26:00,33.1,32.3,29.90,NW,306,2.0,4.0,97,0.00,,,0.11,0,Wunderground v.1.15,2013-01-16 22:26:00,
2013-01-16 17:32:00,33.1,32.3,29.89,NW,306,2.0,2.0,97,0.00,,,0.11,0,Wunderground v.1.15,2013-01-16 22:32:00,
2013-01-16 17:38:00,32.9,31.9,29.89,NW,306,2.0,4.0,96,0.00,,,0.11,0,Wunderground v.1.15,2013-01-16 22:38:00,
2013-01-16 17:44:00,33.1,32.1,29.89,NW,306,2.0,2.0,96,0.00,,,0.11,0,Wunderground v.1.15,2013-01-16 22:44:00,
2013-01-16 17:50:00,33.1,32.1,29.89,NW,306,0.0,1.0,96,0.00,,,0.11,0,Wunderground v.1.15,2013-01-16 22:50:00,
2013-01-16 17:56:00,32.9,31.9,29.89,NW,306,0.0,4.0,96,0.00,,,0.11,0,Wunderground v.1.15,2013-01-16 22:56:00,
2013-01-16 18:02:00,32.9,31.9,29.89,NW,306,1.0,1.0,96,0.00,,,0.12,0,Wunderground v.1.15,2013-01-16 23:02:00,
2013-01-16 18:08:00,33.1,32.1,29.89,NW,306,0.0,2.0,96,0.00,,,0.12,0,Wunderground v.1.15,2013-01-16 23:08:00,
2013-01-16 18:14:00,33.2,32.2,29.89,NW,306,0.0,2.0,96,0.00,,,0.12,0,Wunderground v.1.15,2013-01-16 23:14:00,
2013-01-16 18:20:00,33.2,32.2,29.88,NW,306,1.0,1.0,96,0.00,,,0.12,0,Wunderground v.1.15,2013-01-16 23:20:00,
2013-01-16 18:26:00,33.1,32.1,29.88,NW,306,1.0,2.0,96,0.00,,,0.12,0,Wunderground v.1.15,2013-01-16 23:26:00,
2013-01-16 18:32:00,33.1,32.1,29.90,NW,306,1.0,2.0,96,0.00,,,0.12,0,Wunderground v.1.15,2013-01-16 23:32:00,
2013-01-16 18:38:00,33.1,32.1,29.90,NW,306,3.0,3.0,96,0.00,,,0.12,0,Wunderground v.1.15,2013-01-16 23:38:00,
2013-01-16 18:44:00,33.1,32.1,29.90,NW,306,2.0,4.0,96,0.00,,,0.12,0,Wunderground v.1.15,2013-01-16 23:44:00,
2013-01-16 18:50:00,32.9,31.9,29.89,NW,306,1.0,5.0,96,0.00,,,0.12,0,Wunderground v.1.15,2013-01-16 23:50:00,
2013-01-16 18:56:00,32.9,31.9,29.89,NW,306,2.0,5.0,96,0.00,,,0.12,0,Wunderground v.1.15,2013-01-16 23:56:00,
2013-01-16 19:02:00,33.1,32.1,29.88,NW,306,1.0,3.0,96,0.00,,,0.12,0,Wunderground v.1.15,2013-01-17 00:02:00,
2013-01-16 19:08:00,33.1,32.1,29.88,NW,306,0.0,3.0,96,0.00,,,0.12,0,Wunderground v.1.15,2013-01-17 00:08:00,
2013-01-16 19:14:00,33.1,32.1,29.88,NW,306,0.0,0.0,96,0.00,,,0.12,0,Wunderground v.1.15,2013-01-17 00:14:00,
2013-01-16 19:20:00,33.1,32.1,29.87,NW,306,0.0,1.0,96,0.00,,,0.12,0,Wunderground v.1.15,2013-01-17 00:20:00,
2013-01-16 19:26:00,33.1,32.1,29.87,NW,306,0.0,1.0,96,0.00,,,0.12,0,Wunderground v.1.15,2013-01-17 00:26:00,
2013-01-16 19:32:00,33.1,32.1,29.88,NW,306,0.0,1.0,96,0.00,,,0.12,0,Wunderground v.1.15,2013-01-17 00:32:00,
2013-01-16 19:38:00,33.1,32.1,29.88,NW,306,0.0,2.0,96,0.00,,,0.12,0,Wunderground v.1.15,2013-01-17 00:38:00,
2013-01-16 19:44:00,32.9,31.9,29.88,NW,306,1.0,2.0,96,0.00,,,0.12,0,Wunderground v.1.15,2013-01-17 00:44:00,
2013-01-16 19:50:00,32.9,31.9,29.87,NW,306,1.0,1.0,96,0.00,,,0.12,0,Wunderground v.1.15,2013-01-17 00:50:00,
2013-01-16 19:56:00,32.9,31.9,29.87,NW,306,0.0,1.0,96,0.00,,,0.12,0,Wunderground v.1.15,2013-01-17 00:56:00,
2013-01-16 20:02:00,33.1,32.1,29.89,NW,306,1.0,2.0,96,0.00,,,0.12,0,Wunderground v.1.15,2013-01-17 01:02:00,
2013-01-16 20:08:00,33.1,32.1,29.89,NW,306,1.0,2.0,96,0.00,,,0.12,0,Wunderground v.1.15,2013-01-17 01:08:00,
2013-01-16 20:14:00,33.1,32.1,29.89,NW,306,0.0,1.0,96,0.00,,,0.12,0,Wunderground v.1.15,2013-01-17 01:14:00,
2013-01-16 20:20:00,33.1,32.1,29.89,NW,306,0.0,0.0,96,0.00,,,0.12,0,Wunderground v.1.15,2013-01-17 01:20:00,
2013-01-16 20:26:00,33.1,32.1,29.89,NW,306,1.0,2.0,96,0.00,,,0.12,0,Wunderground v.1.15,2013-01-17 01:26:00,
2013-01-16 20:32:00,33.1,32.1,29.89,NW,306,1.0,1.0,96,0.00,,,0.12,0,Wunderground v.1.15,2013-01-17 01:32:00,
2013-01-16 20:38:00,33.1,32.1,29.89,NW,306,1.0,1.0,96,0.00,,,0.12,0,Wunderground v.1.15,2013-01-17 01:38:00,
2013-01-16 20:44:00,33.1,32.1,29.89,NW,306,1.0,4.0,96,0.00,,,0.13,0,Wunderground v.1.15,2013-01-17 01:44:00,
2013-01-16 20:50:00,32.9,31.9,29.88,NW,306,1.0,1.0,96,0.00,,,0.13,0,Wunderground v.1.15,2013-01-17 01:50:00,
2013-01-16 20:56:00,32.9,31.9,29.88,NW,306,1.0,2.0,96,0.00,,,0.13,0,Wunderground v.1.15,2013-01-17 01:56:00,
2013-01-16 21:02:00,32.9,31.9,29.88,NW,306,0.0,0.0,96,0.00,,,0.13,0,Wunderground v.1.15,2013-01-17 02:02:00,
2013-01-16 21:08:00,33.1,32.1,29.88,NW,306,0.0,2.0,96,0.00,,,0.13,0,Wunderground v.1.15,2013-01-17 02:08:00,
2013-01-16 21:14:00,33.1,31.8,29.88,NW,306,1.0,2.0,95,0.00,,,0.13,0,Wunderground v.1.15,2013-01-17 02:14:00,
2013-01-16 21:20:00,32.9,31.6,29.89,NW,306,1.0,1.0,95,0.00,,,0.13,0,Wunderground v.1.15,2013-01-17 02:20:00,
2013-01-16 21:26:00,32.9,31.6,29.89,NW,306,1.0,2.0,95,0.00,,,0.13,0,Wunderground v.1.15,2013-01-17 02:26:00,
2013-01-16 21:32:00,33.1,31.8,29.89,NW,306,0.0,0.0,95,0.00,,,0.13,0,Wunderground v.1.15,2013-01-17 02:32:00,
2013-01-16 21:38:00,33.1,31.8,29.89,NW,306,0.0,0.0,95,0.00,,,0.13,0,Wunderground v.1.15,2013-01-17 02:38:00,
2013-01-16 21:44:00,33.1,31.8,29.89,NW,306,0.0,1.0,95,0.00,,,0.13,0,Wunderground v.1.15,2013-01-17 02:44:00,
2013-01-16 21:50:00,33.1,31.8,29.87,NW,306,0.0,0.0,95,0.00,,,0.13,0,Wunderground v.1.15,2013-01-17 02:50:00,
2013-01-16 21:56:00,33.1,31.8,29.87,NW,306,0.0,1.0,95,0.00,,,0.13,0,Wunderground v.1.15,2013-01-17 02:56:00,
2013-01-16 22:02:00,33.1,31.8,29.88,NW,306,1.0,1.0,95,0.00,,,0.13,0,Wunderground v.1.15,2013-01-17 03:02:00,
2013-01-16 22:08:00,33.2,31.9,29.88,NW,306,0.0,1.0,95,0.00,,,0.13,0,Wunderground v.1.15,2013-01-17 03:08:00,
2013-01-16 22:14:00,33.2,31.9,29.88,NW,306,0.0,2.0,95,0.00,,,0.13,0,Wunderground v.1.15,2013-01-17 03:14:00,
2013-01-16 22:20:00,33.2,31.9,29.88,NW,306,0.0,1.0,95,0.00,,,0.13,0,Wunderground v.1.15,2013-01-17 03:20:00,
2013-01-16 22:26:00,33.2,31.9,29.88,NW,306,0.0,1.0,95,0.00,,,0.13,0,Wunderground v.1.15,2013-01-17 03:26:00,
2013-01-16 22:32:00,33.2,31.9,29.89,NW,306,0.0,0.0,95,0.00,,,0.13,0,Wunderground v.1.15,2013-01-17 03:32:00,
2013-01-16 22:38:00,33.4,32.1,29.89,NW,306,0.0,1.0,95,0.00,,,0.13,0,Wunderground v.1.15,2013-01-17 03:38:00,
2013-01-16 22:44:00,33.4,32.1,29.89,NW,306,0.0,0.0,95,0.00,,,0.13,0,Wunderground v.1.15,2013-01-17 03:44:00,
2013-01-16 22:50:00,33.4,32.1,29.88,NW,306,0.0,0.0,95,0.00,,,0.13,0,Wunderground v.1.15,2013-01-17 03:50:00,
2013-01-16 22:56:00,33.4,32.1,29.88,NW,306,0.0,0.0,95,0.00,,,0.13,0,Wunderground v.1.15,2013-01-17 03:56:00,
2013-01-16 23:02:00,33.2,31.9,29.87,NW,306,0.0,2.0,95,0.00,,,0.13,0,Wunderground v.1.15,2013-01-17 04:02:00,
2013-01-16 23:08:00,33.2,31.9,29.87,NW,305,1.0,2.0,95,0.00,,,0.13,0,Wunderground v.1.15,2013-01-17 04:08:00,
2013-01-16 23:14:00,33.2,31.9,29.87,NW,305,1.0,2.0,95,0.00,,,0.13,0,Wunderground v.1.15,2013-01-17 04:14:00,
2013-01-16 23:20:00,33.1,31.8,29.87,NW,305,0.0,2.0,95,0.00,,,0.13,0,Wunderground v.1.15,2013-01-17 04:20:00,
2013-01-16 23:26:00,33.1,31.8,29.87,NW,305,0.0,2.0,95,0.00,,,0.13,0,Wunderground v.1.15,2013-01-17 04:26:00,
2013-01-16 23:32:00,33.1,31.8,29.87,NW,305,0.0,2.0,95,0.00,,,0.13,0,Wunderground v.1.15,2013-01-17 04:32:00,
2013-01-16 23:38:00,33.1,31.8,29.87,NW,305,1.0,2.0,95,0.00,,,0.13,0,Wunderground v.1.15,2013-01-17 04:38:00,
2013-01-16 23:44:00,33.1,32.1,29.87,NW,305,0.0,2.0,96,0.00,,,0.13,0,Wunderground v.1.15,2013-01-17 04:44:00,
2013-01-16 23:50:00,33.2,32.2,29.87,NW,305,0.0,2.0,96,0.00,,,0.13,0,Wunderground v.1.15,2013-01-17 04:50:00,
2013-01-16 23:56:00,33.4,32.4,29.87,NW,305,0.0,2.0,96,0.00,,,0.13,0,Wunderground v.1.15,2013-01-17 04:56:00,